createdAt,value
2023-03-16T00:01:12.634Z,0.90
2023-03-16T00:03:39.288Z,1.00
2023-03-16T00:06:06.106Z,0.85
2023-03-16T00:08:32.663Z,1.15
2023-03-16T00:10:59.172Z,0.90
2023-03-16T00:13:25.737Z,0.90
2023-03-16T00:15:56.648Z,0.65
2023-03-16T00:18:25.332Z,0.77
2023-03-16T00:20:53.487Z,0.80
2023-03-16T00:23:20.097Z,0.82
2023-03-16T00:25:46.601Z,0.90
2023-03-16T00:28:13.098Z,0.80
2023-03-16T00:30:43.272Z,1.10
2023-03-16T00:33:09.827Z,0.73
2023-03-16T00:35:36.389Z,0.80
2023-03-16T00:38:02.911Z,0.90
2023-03-16T00:40:33.507Z,1.00
2023-03-16T00:43:00.001Z,0.82
2023-03-16T00:45:26.483Z,0.80
2023-03-16T00:47:52.965Z,0.90
2023-03-16T00:50:20.008Z,0.80
2023-03-16T00:52:46.582Z,0.90
2023-03-16T00:55:13.304Z,0.82
2023-03-16T00:57:39.853Z,0.90
2023-03-16T01:00:06.816Z,1.00
2023-03-16T01:02:33.360Z,1.00
2023-03-16T01:04:59.850Z,1.00
2023-03-16T01:07:28.702Z,0.90
2023-03-16T01:09:55.224Z,1.10
2023-03-16T01:12:21.705Z,1.10
2023-03-16T01:14:48.844Z,1.10
2023-03-16T01:17:17.189Z,0.90
2023-03-16T01:19:44.687Z,1.10
2023-03-16T01:22:12.118Z,1.00
2023-03-16T01:24:39.386Z,1.00
2023-03-16T01:27:06.135Z,0.93
2023-03-16T01:29:32.666Z,1.00
2023-03-16T01:31:59.657Z,0.95
2023-03-16T01:34:26.261Z,1.20
2023-03-16T01:36:52.764Z,1.20
2023-03-16T01:39:19.264Z,0.88
2023-03-16T01:41:47.415Z,1.00
2023-03-16T01:44:22.257Z,1.30
2023-03-16T01:46:50.761Z,0.80
2023-03-16T01:49:34.286Z,0.90
2023-03-16T01:52:07.767Z,1.05
2023-03-16T01:54:40.271Z,1.30
2023-03-16T01:57:15.656Z,0.95
2023-03-16T01:59:50.426Z,0.90
2023-03-16T02:02:20.273Z,0.90
2023-03-16T02:05:07.574Z,1.25
2023-03-16T02:07:40.762Z,1.10
2023-03-16T02:10:08.415Z,0.80
2023-03-16T02:12:34.996Z,0.85
2023-03-16T02:15:05.074Z,0.98
2023-03-16T02:17:32.482Z,0.95
2023-03-16T02:20:17.352Z,1.20
2023-03-16T02:22:49.252Z,1.10
2023-03-16T02:25:18.257Z,0.93
2023-03-16T02:28:05.899Z,1.08
2023-03-16T02:30:32.427Z,1.08
2023-03-16T02:32:59.087Z,0.98
2023-03-16T02:35:26.130Z,0.90
2023-03-16T02:37:52.653Z,1.00
2023-03-16T02:40:28.748Z,1.00
2023-03-16T02:43:17.277Z,0.90
2023-03-16T02:45:48.480Z,0.82
2023-03-16T02:48:20.844Z,0.90
2023-03-16T02:50:49.306Z,0.85
2023-03-16T02:53:16.761Z,1.02
2023-03-16T02:55:43.552Z,1.10
2023-03-16T02:58:10.075Z,1.00
2023-03-16T03:00:36.602Z,1.00
2023-03-16T03:03:03.207Z,1.10
2023-03-16T03:05:29.863Z,1.20
2023-03-16T03:07:56.919Z,1.40
2023-03-16T03:10:23.439Z,1.00
2023-03-16T03:12:49.959Z,1.25
2023-03-16T03:15:16.808Z,1.10
2023-03-16T03:17:43.315Z,0.98
2023-03-16T03:20:11.699Z,1.38
2023-03-16T03:22:38.242Z,1.10
2023-03-16T03:25:05.144Z,0.90
2023-03-16T03:27:31.711Z,0.93
2023-03-16T03:29:58.375Z,0.90
2023-03-16T03:32:24.995Z,0.93
2023-03-16T03:34:51.533Z,0.90
2023-03-16T03:37:18.050Z,1.00
2023-03-16T03:39:44.563Z,1.20
2023-03-16T03:42:11.694Z,1.00
2023-03-16T03:44:38.226Z,1.10
2023-03-16T03:47:04.897Z,1.10
2023-03-16T03:49:31.501Z,0.98
2023-03-16T03:51:58.079Z,1.38
2023-03-16T03:54:25.350Z,1.20
2023-03-16T03:56:52.267Z,1.10
2023-03-16T03:59:18.834Z,1.10
2023-03-16T04:01:45.409Z,1.10
2023-03-16T04:04:11.943Z,1.00
2023-03-16T04:06:38.461Z,0.95
2023-03-16T04:09:04.969Z,1.13
2023-03-16T04:11:31.459Z,1.05
2023-03-16T04:13:58.203Z,1.08
2023-03-16T04:16:24.878Z,0.93
2023-03-16T04:18:51.379Z,0.95
2023-03-16T04:21:18.420Z,1.05
2023-03-16T04:23:44.914Z,1.10
2023-03-16T04:26:11.492Z,1.15
2023-03-16T04:28:38.071Z,1.05
2023-03-16T04:31:08.462Z,1.13
2023-03-16T04:36:02.011Z,1.00
2023-03-16T04:38:33.467Z,1.00
2023-03-16T04:41:06.253Z,1.10
2023-03-16T04:43:33.319Z,1.20
2023-03-16T04:46:04.306Z,1.20
2023-03-16T04:48:32.473Z,1.05
2023-03-16T04:50:59.324Z,1.17
2023-03-16T04:53:27.880Z,1.05
2023-03-16T04:55:54.350Z,1.23
2023-03-16T04:58:20.990Z,0.90
2023-03-16T05:00:47.475Z,1.00
2023-03-16T05:03:14.120Z,1.13
2023-03-16T05:05:40.970Z,1.20
2023-03-16T05:08:07.537Z,1.10
2023-03-16T05:10:34.414Z,1.20
2023-03-16T05:13:01.151Z,1.00
2023-03-16T05:15:27.917Z,1.13
2023-03-16T05:17:55.336Z,1.10
2023-03-16T05:20:22.475Z,1.30
2023-03-16T05:22:49.472Z,1.10
2023-03-16T05:25:17.433Z,1.33
2023-03-16T05:27:49.930Z,1.30
2023-03-16T05:30:17.139Z,1.20
2023-03-16T05:32:44.525Z,1.50
2023-03-16T05:35:12.457Z,1.48
2023-03-16T05:37:42.840Z,1.27
2023-03-16T05:40:14.542Z,1.23
2023-03-16T05:42:41.066Z,1.33
2023-03-16T05:45:08.172Z,0.90
2023-03-16T05:47:34.711Z,1.13
2023-03-16T05:50:01.226Z,1.17
2023-03-16T05:52:27.762Z,1.45
2023-03-16T05:54:54.319Z,1.30
2023-03-16T05:57:20.830Z,1.30
2023-03-16T05:59:47.368Z,1.40
2023-03-16T06:02:14.027Z,1.20
2023-03-16T06:04:40.550Z,1.30
2023-03-16T06:07:09.238Z,1.10
2023-03-16T06:09:35.793Z,1.20
2023-03-16T06:12:02.293Z,1.40
2023-03-16T06:14:28.828Z,1.20
2023-03-16T06:16:55.507Z,1.20
2023-03-16T06:19:22.121Z,1.40
2023-03-16T06:21:48.664Z,1.20
2023-03-16T06:24:16.327Z,1.17
2023-03-16T06:26:42.803Z,1.30
2023-03-16T06:29:09.301Z,1.30
2023-03-16T06:31:39.052Z,1.13
2023-03-16T06:34:05.700Z,1.20
2023-03-16T06:36:32.244Z,1.30
2023-03-16T06:38:58.736Z,1.10
2023-03-16T06:41:25.328Z,1.17
2023-03-16T06:43:52.056Z,1.30
2023-03-16T06:46:18.620Z,1.50
2023-03-16T06:48:45.175Z,1.30
2023-03-16T06:51:11.696Z,1.55
2023-03-16T06:53:38.205Z,1.20
2023-03-16T06:56:05.113Z,1.58
2023-03-16T06:58:31.635Z,1.58
2023-03-16T07:01:04.174Z,1.30
2023-03-16T07:03:31.117Z,1.50
2023-03-16T07:05:57.653Z,1.52
2023-03-16T07:08:24.193Z,1.35
2023-03-16T07:10:52.526Z,1.55
2023-03-16T07:13:19.042Z,1.45
2023-03-16T07:15:45.766Z,1.58
2023-03-16T07:18:12.283Z,1.40
2023-03-16T07:20:39.945Z,2.00
2023-03-16T07:23:06.496Z,1.40
2023-03-16T07:25:33.190Z,1.60
2023-03-16T07:27:59.691Z,1.20
2023-03-16T07:30:26.755Z,1.20
2023-03-16T07:32:53.942Z,1.23
2023-03-16T07:35:20.634Z,1.00
2023-03-16T07:37:47.295Z,1.15
2023-03-16T07:40:14.401Z,1.13
2023-03-16T07:42:41.372Z,1.00
2023-03-16T07:45:08.528Z,1.17
2023-03-16T07:47:35.178Z,0.90
2023-03-16T07:50:02.181Z,1.10
2023-03-16T07:52:28.753Z,0.88
2023-03-16T07:54:55.459Z,0.75
2023-03-16T07:57:22.431Z,0.90
2023-03-16T07:59:49.650Z,0.90
2023-03-16T08:02:18.042Z,0.93
2023-03-16T08:04:45.246Z,0.73
2023-03-16T08:07:13.415Z,0.57
2023-03-16T08:09:40.283Z,0.85
2023-03-16T08:12:08.280Z,0.80
2023-03-16T08:14:35.130Z,0.80
2023-03-16T08:17:02.002Z,0.80
2023-03-16T08:19:28.677Z,1.08
2023-03-16T08:22:01.381Z,0.95
2023-03-16T08:24:29.373Z,0.90
2023-03-16T08:26:55.928Z,0.90
2023-03-16T08:29:22.715Z,1.08
2023-03-16T08:31:49.240Z,1.00
2023-03-16T08:34:15.773Z,0.80
2023-03-16T08:36:42.325Z,0.80
2023-03-16T08:39:12.149Z,1.00
2023-03-16T08:41:38.722Z,1.00
2023-03-16T08:44:05.462Z,1.10
2023-03-16T08:46:32.334Z,1.00
2023-03-16T08:48:58.926Z,0.95
2023-03-16T08:51:25.468Z,0.85
2023-03-16T08:53:51.980Z,1.10
2023-03-16T08:56:18.513Z,0.90
2023-03-16T08:58:45.038Z,1.10
2023-03-16T09:01:13.432Z,0.80
2023-03-16T09:03:40.047Z,1.00
2023-03-16T09:06:08.620Z,1.02
2023-03-16T09:08:35.732Z,1.00
2023-03-16T09:11:10.808Z,1.20
2023-03-16T09:13:37.879Z,0.90
2023-03-16T09:16:05.205Z,0.90
2023-03-16T09:18:32.603Z,0.90
2023-03-16T09:21:00.398Z,1.00
2023-03-16T09:23:27.448Z,1.00
2023-03-16T09:25:57.583Z,1.08
2023-03-16T09:30:50.472Z,1.40
2023-03-16T09:33:16.987Z,1.20
2023-03-16T09:35:44.180Z,1.30
2023-03-16T09:38:10.748Z,1.25
2023-03-16T09:40:37.866Z,1.63
2023-03-16T09:43:39.363Z,1.27
2023-03-16T09:46:13.146Z,1.60
2023-03-16T09:48:39.895Z,1.50
2023-03-16T09:51:12.411Z,1.42
2023-03-16T09:53:40.048Z,1.35
2023-03-16T09:56:11.868Z,1.13
2023-03-16T09:58:38.403Z,1.40
2023-03-16T10:01:04.971Z,1.30
2023-03-16T10:03:50.244Z,1.80
2023-03-16T10:06:16.878Z,1.40
2023-03-16T10:08:46.083Z,1.45
2023-03-16T10:11:24.962Z,1.50
2023-03-16T10:14:15.637Z,1.40
2023-03-16T10:16:48.825Z,1.40
2023-03-16T10:19:33.386Z,1.42
2023-03-16T10:22:03.022Z,1.40
2023-03-16T10:24:54.417Z,1.35
2023-03-16T10:27:37.522Z,1.70
2023-03-16T10:30:14.942Z,1.58
2023-03-16T10:32:41.504Z,1.30
2023-03-16T10:35:22.818Z,1.75
2023-03-16T10:37:49.557Z,1.50
2023-03-16T10:40:16.141Z,1.67
2023-03-16T10:42:42.666Z,1.52
2023-03-16T10:45:34.049Z,1.70
2023-03-16T10:48:14.194Z,1.80
2023-03-16T10:50:42.334Z,1.70
2023-03-16T10:53:18.705Z,1.52
2023-03-16T10:55:47.710Z,1.50
2023-03-16T10:58:30.678Z,1.80
2023-03-16T11:00:57.462Z,2.22
2023-03-16T11:03:40.297Z,1.50
2023-03-16T11:06:16.009Z,1.63
2023-03-16T11:08:42.552Z,1.50
2023-03-16T11:11:17.480Z,2.75
2023-03-16T11:13:48.238Z,1.80
2023-03-16T11:16:26.412Z,1.48
2023-03-16T11:21:37.840Z,1.55
2023-03-16T11:24:05.881Z,1.67
2023-03-16T11:26:36.604Z,1.60
2023-03-16T11:29:39.975Z,1.73
2023-03-16T11:32:13.515Z,1.77
2023-03-16T11:34:41.041Z,1.63
2023-03-16T11:37:13.650Z,1.48
2023-03-16T11:39:55.121Z,1.88
2023-03-16T11:42:27.993Z,1.70
2023-03-16T11:44:54.433Z,1.77
2023-03-16T11:47:26.924Z,1.55
2023-03-16T11:50:13.874Z,1.80
2023-03-16T11:52:49.635Z,1.75
2023-03-16T11:55:34.829Z,1.50
2023-03-16T11:58:31.758Z,1.80
2023-03-16T12:01:17.134Z,2.00
2023-03-16T12:03:54.373Z,1.65
2023-03-16T12:06:23.984Z,1.40
2023-03-16T12:08:50.469Z,1.60
2023-03-16T12:11:25.610Z,1.58
2023-03-16T12:13:52.057Z,1.30
2023-03-16T12:16:48.732Z,1.40
2023-03-16T12:19:19.883Z,1.30
2023-03-16T12:24:23.984Z,1.27
2023-03-16T12:26:51.502Z,1.10
2023-03-16T12:29:32.599Z,0.95
2023-03-16T12:32:09.661Z,1.10
2023-03-16T12:35:22.047Z,1.10
2023-03-16T12:38:22.912Z,1.40
2023-03-16T12:41:03.614Z,1.00
2023-03-16T12:43:53.096Z,1.00
2023-03-16T12:46:29.068Z,0.95
2023-03-16T12:48:58.254Z,1.10
2023-03-16T12:51:38.853Z,0.95
2023-03-16T12:54:06.170Z,1.02
2023-03-16T12:56:34.695Z,1.30
2023-03-16T12:59:03.724Z,1.20
2023-03-16T13:01:42.999Z,1.38
2023-03-16T13:04:14.061Z,1.60
2023-03-16T13:06:45.812Z,1.20
2023-03-16T13:09:13.035Z,1.50
2023-03-16T13:11:48.462Z,1.40
2023-03-16T13:14:18.050Z,1.45
2023-03-16T13:16:45.075Z,1.75
2023-03-16T13:19:24.421Z,1.65
2023-03-16T13:22:04.123Z,1.45
2023-03-16T13:24:39.078Z,1.52
2023-03-16T13:27:30.176Z,1.40
2023-03-16T13:30:02.509Z,1.25
2023-03-16T13:32:33.534Z,1.30
2023-03-16T13:35:01.751Z,0.95
2023-03-16T13:37:29.622Z,1.00
2023-03-16T13:40:01.048Z,1.10
2023-03-16T13:42:32.460Z,1.20
2023-03-16T13:45:07.264Z,1.13
2023-03-16T13:47:33.907Z,1.30
2023-03-16T13:50:00.707Z,1.10
2023-03-16T13:52:32.960Z,1.20
2023-03-16T13:55:01.177Z,1.00
2023-03-16T13:57:36.038Z,1.33
2023-03-16T14:00:23.677Z,1.38
2023-03-16T14:02:55.588Z,1.20
2023-03-16T14:05:25.794Z,1.13
2023-03-16T14:10:19.692Z,1.13
2023-03-16T14:12:57.272Z,1.10
2023-03-16T14:15:28.239Z,1.20
2023-03-16T14:18:08.418Z,1.17
2023-03-16T14:20:40.920Z,1.42
2023-03-16T14:23:18.127Z,1.35
2023-03-16T14:25:44.759Z,1.10
2023-03-16T14:28:14.708Z,1.02
2023-03-16T14:30:50.637Z,1.27
2023-03-16T14:33:30.400Z,1.30
2023-03-16T14:35:58.909Z,1.33
2023-03-16T14:38:33.258Z,1.55
2023-03-16T14:41:05.332Z,1.40
2023-03-16T14:43:40.774Z,1.30
2023-03-16T14:46:07.907Z,1.33
2023-03-16T14:48:35.485Z,1.30
2023-03-16T14:51:03.084Z,1.30
2023-03-16T14:53:29.685Z,1.30
2023-03-16T14:55:56.872Z,1.38
2023-03-16T14:58:24.150Z,1.23
2023-03-16T15:00:53.333Z,0.95
2023-03-16T15:03:33.228Z,0.85
2023-03-16T15:06:00.118Z,1.27
2023-03-16T15:08:29.533Z,1.50
2023-03-16T15:10:57.927Z,1.30
2023-03-16T15:13:24.506Z,1.58
2023-03-16T15:15:51.008Z,1.30
2023-03-16T15:18:17.535Z,1.10
2023-03-16T15:20:44.447Z,1.20
2023-03-16T15:23:14.170Z,0.98
2023-03-16T15:25:42.922Z,1.00
2023-03-16T15:28:11.284Z,1.23
2023-03-16T15:30:37.822Z,1.20
2023-03-16T15:33:04.508Z,0.95
2023-03-16T15:35:31.700Z,0.90
2023-03-16T15:37:59.014Z,1.10
2023-03-16T15:40:28.132Z,1.10
2023-03-16T15:42:55.128Z,0.85
2023-03-16T15:45:24.822Z,1.10
2023-03-16T15:47:52.823Z,0.82
2023-03-16T15:50:21.466Z,0.80
2023-03-16T15:52:52.713Z,0.85
2023-03-16T15:55:44.372Z,1.05
2023-03-16T15:58:16.926Z,1.40
2023-03-16T16:00:43.481Z,1.20
2023-03-16T16:03:11.392Z,1.60
2023-03-16T16:05:37.941Z,1.30
2023-03-16T16:08:04.634Z,1.40
2023-03-16T16:10:31.508Z,1.30
2023-03-16T16:12:58.680Z,1.33
2023-03-16T16:15:28.174Z,1.48
2023-03-16T16:18:19.321Z,1.50
2023-03-16T16:20:42.390Z,1.30
2023-03-16T16:23:09.704Z,1.40
2023-03-16T16:25:39.050Z,1.10
2023-03-16T16:28:15.766Z,0.90
2023-03-16T16:30:43.578Z,1.00
2023-03-16T16:33:34.434Z,1.20
2023-03-16T16:36:03.241Z,0.90
2023-03-16T16:38:32.993Z,1.45
2023-03-16T16:41:01.298Z,1.08
2023-03-16T16:43:36.886Z,1.30
2023-03-16T16:46:06.692Z,1.30
2023-03-16T16:48:36.761Z,1.23
2023-03-16T16:51:04.794Z,1.38
2023-03-16T16:53:31.302Z,1.08
2023-03-16T16:55:57.955Z,1.13
2023-03-16T16:58:25.910Z,1.42
2023-03-16T17:00:57.009Z,1.35
2023-03-16T17:03:25.632Z,1.20
2023-03-16T17:05:52.819Z,1.50
2023-03-16T17:08:19.905Z,1.05
2023-03-16T17:10:46.874Z,0.93
2023-03-16T17:13:38.062Z,1.13
2023-03-16T17:16:05.909Z,1.10
2023-03-16T17:18:32.453Z,1.13
2023-03-16T17:20:59.842Z,1.40
2023-03-16T17:23:29.289Z,1.27
2023-03-16T17:25:57.245Z,1.15
2023-03-16T17:28:25.925Z,1.20
2023-03-16T17:30:52.655Z,1.48
2023-03-16T17:33:19.389Z,1.50
2023-03-16T17:35:47.546Z,1.10
2023-03-16T17:38:18.947Z,1.20
2023-03-16T17:40:46.082Z,1.10
2023-03-16T17:43:17.482Z,1.30
2023-03-16T17:45:45.322Z,1.50
2023-03-16T17:48:22.394Z,1.90
2023-03-16T17:50:48.951Z,1.50
2023-03-16T17:53:16.783Z,3.60
2023-03-16T17:55:44.619Z,1.30
2023-03-16T17:58:21.580Z,1.23
2023-03-16T18:00:48.115Z,1.27
2023-03-16T18:03:15.663Z,1.33
2023-03-16T18:05:42.331Z,1.25
2023-03-16T18:08:14.109Z,1.48
2023-03-16T18:10:40.795Z,1.60
2023-03-16T18:13:32.743Z,1.25
2023-03-16T18:15:59.768Z,1.42
2023-03-16T18:18:31.585Z,1.63
2023-03-16T18:20:58.169Z,1.27
2023-03-16T18:23:30.010Z,2.00
2023-03-16T18:25:56.799Z,1.88
2023-03-16T18:28:23.338Z,2.35
2023-03-16T18:30:51.647Z,1.90
2023-03-16T18:33:24.230Z,2.17
2023-03-16T18:35:52.270Z,2.00
2023-03-16T18:38:40.065Z,2.33
2023-03-16T18:41:18.472Z,2.05
2023-03-16T18:43:45.970Z,2.85
2023-03-16T18:46:33.719Z,2.10
2023-03-16T18:49:03.175Z,2.58
2023-03-16T18:51:30.418Z,2.20
2023-03-16T18:53:57.028Z,2.50
2023-03-16T18:56:28.042Z,2.85
2023-03-16T18:58:55.550Z,2.70
2023-03-16T19:01:30.917Z,2.95
2023-03-16T19:03:58.559Z,2.97
2023-03-16T19:06:33.947Z,2.80
2023-03-16T19:09:06.513Z,2.67
2023-03-16T19:11:34.725Z,3.75
2023-03-16T19:14:01.291Z,3.88
2023-03-16T19:16:27.860Z,3.10
2023-03-16T19:18:54.883Z,3.30
2023-03-16T19:21:24.354Z,3.10
2023-03-16T19:23:58.683Z,3.25
2023-03-16T19:26:25.262Z,2.67
2023-03-16T19:28:53.277Z,3.63
2023-03-16T19:31:24.267Z,3.35
2023-03-16T19:33:51.016Z,3.17
2023-03-16T19:36:30.894Z,3.03
2023-03-16T19:39:00.739Z,3.20
2023-03-16T19:41:28.653Z,3.42
2023-03-16T19:43:56.476Z,3.58
2023-03-16T19:46:25.740Z,3.10
2023-03-16T19:48:52.658Z,3.70
2023-03-16T19:51:19.222Z,3.50
2023-03-16T19:53:46.169Z,3.40
2023-03-16T19:56:17.184Z,3.45
2023-03-16T19:58:47.029Z,3.40
2023-03-16T20:01:22.427Z,2.90
2023-03-16T20:03:51.699Z,2.90
2023-03-16T20:06:21.266Z,3.13
2023-03-16T20:08:48.598Z,2.75
2023-03-16T20:11:21.245Z,5.38
2023-03-16T20:13:48.814Z,2.88
2023-03-16T20:16:24.152Z,2.72
2023-03-16T20:18:53.988Z,2.78
2023-03-16T20:21:26.989Z,2.58
2023-03-16T20:23:54.050Z,2.42
2023-03-16T20:26:22.890Z,2.38
2023-03-16T20:28:50.107Z,2.13
2023-03-16T20:31:25.005Z,2.28
2023-03-16T20:33:52.418Z,2.53
2023-03-16T20:36:20.100Z,2.65
2023-03-16T20:38:50.328Z,3.08
2023-03-16T20:41:26.624Z,3.20
2023-03-16T20:43:54.233Z,2.60
2023-03-16T20:46:24.673Z,2.95
2023-03-16T20:51:19.867Z,3.13
2023-03-16T20:53:46.728Z,3.22
2023-03-16T20:56:15.767Z,3.13
2023-03-16T20:58:44.519Z,2.75
2023-03-16T21:01:12.624Z,2.63
2023-03-16T21:03:39.143Z,2.88
2023-03-16T21:06:06.657Z,3.05
2023-03-16T21:08:33.290Z,2.85
2023-03-16T21:10:59.847Z,2.95
2023-03-16T21:13:33.608Z,3.08
2023-03-16T21:16:02.153Z,3.30
2023-03-16T21:18:30.954Z,3.40
2023-03-16T21:20:57.569Z,3.88
2023-03-16T21:23:24.370Z,2.92
2023-03-16T21:25:53.627Z,3.05
2023-03-16T21:28:20.698Z,3.05
2023-03-16T21:30:55.248Z,3.08
2023-03-16T21:33:28.572Z,2.90
2023-03-16T21:35:56.226Z,3.00
2023-03-16T21:38:23.069Z,3.20
2023-03-16T21:40:49.810Z,3.10
2023-03-16T21:43:18.646Z,2.90
2023-03-16T21:45:46.550Z,2.83
2023-03-16T21:48:22.402Z,3.10
2023-03-16T21:50:52.525Z,2.85
2023-03-16T21:53:27.251Z,3.08
2023-03-16T21:55:54.134Z,3.78
2023-03-16T21:58:21.888Z,4.20
2023-03-16T22:00:49.723Z,3.33
2023-03-16T22:03:47.946Z,2.67
2023-03-16T22:06:16.483Z,2.80
2023-03-16T22:08:43.195Z,2.65
2023-03-16T22:11:21.345Z,2.72
2023-03-16T22:13:48.580Z,2.70
2023-03-16T22:16:20.253Z,2.30
2023-03-16T22:18:48.925Z,2.67
2023-03-16T22:21:28.897Z,2.30
2023-03-16T22:23:56.795Z,2.90
2023-03-16T22:26:23.868Z,2.90
2023-03-16T22:28:50.959Z,2.72
2023-03-16T22:31:20.589Z,2.67
2023-03-16T22:33:47.822Z,2.75
2023-03-16T22:36:20.186Z,2.70
2023-03-16T22:38:51.187Z,2.78
2023-03-16T22:41:17.646Z,2.78
2023-03-16T22:43:44.946Z,2.70
2023-03-16T22:46:21.759Z,2.90
2023-03-16T22:48:48.277Z,3.13
2023-03-16T22:51:26.325Z,3.03
2023-03-16T22:53:55.888Z,2.97
2023-03-16T22:56:23.519Z,3.05
2023-03-16T22:58:52.277Z,3.13
2023-03-16T23:01:20.950Z,2.78
2023-03-16T23:03:49.228Z,2.70
2023-03-16T23:06:24.146Z,2.70
2023-03-16T23:08:51.267Z,2.97
2023-03-16T23:11:22.244Z,3.03
2023-03-16T23:13:48.745Z,2.67
2023-03-16T23:16:20.859Z,2.67
2023-03-16T23:18:47.970Z,2.72
2023-03-16T23:21:16.063Z,2.75
2023-03-16T23:23:56.981Z,2.80
2023-03-16T23:26:29.093Z,2.28
2023-03-16T23:28:57.288Z,2.53
2023-03-16T23:31:25.419Z,3.00
2023-03-16T23:33:52.003Z,3.50
2023-03-16T23:36:23.778Z,3.13
2023-03-16T23:38:50.781Z,2.83
2023-03-16T23:41:24.236Z,2.90
2023-03-16T23:43:51.149Z,2.75
2023-03-16T23:46:19.769Z,3.00
2023-03-16T23:48:47.664Z,2.90
2023-03-16T23:51:21.365Z,2.95
2023-03-16T23:53:48.527Z,2.90
2023-03-16T23:56:15.245Z,2.35
2023-03-16T23:58:41.724Z,2.55
